createdAt,value
2018-01-22T12:18:54.621Z,1005.88
2018-01-22T12:19:54.534Z,1005.87
2018-01-22T12:20:54.670Z,1005.83
2018-01-22T12:21:54.792Z,1005.84
2018-01-22T12:22:54.317Z,1005.78
2018-01-22T12:23:54.233Z,1005.80
2018-01-22T12:24:54.374Z,1005.79
2018-01-22T12:25:54.514Z,1005.76
2018-01-22T12:26:54.035Z,1005.82
2018-01-22T12:27:54.151Z,1005.78
2018-01-22T12:28:54.077Z,1005.72
2018-01-22T12:29:54.199Z,1005.71
2018-01-22T12:30:53.721Z,1005.64
2018-01-22T12:31:53.853Z,1005.67
2018-01-22T12:32:53.782Z,1005.66
2018-01-22T12:33:53.498Z,1005.68
2018-01-22T12:34:53.431Z,1005.69
2018-01-22T12:35:53.572Z,1005.64
2018-01-22T12:36:53.686Z,1005.70
2018-01-22T12:37:53.215Z,1005.66
2018-01-22T12:38:53.141Z,1005.63
2018-01-22T12:39:53.262Z,1005.60
2018-01-22T12:40:53.405Z,1005.58
2018-01-22T12:41:52.919Z,1005.53
2018-01-22T12:42:53.053Z,1005.53
2018-01-22T12:43:52.974Z,1005.55
2018-01-22T12:44:53.113Z,1005.42
2018-01-22T12:45:52.628Z,1005.41
2018-01-22T12:46:52.763Z,1005.31
2018-01-22T12:47:52.690Z,1005.32
2018-01-22T12:48:52.412Z,1005.30
2018-01-22T12:49:52.340Z,1005.26
2018-01-22T12:50:52.475Z,1005.27
2018-01-22T12:51:52.402Z,1005.24
2018-01-22T12:52:52.124Z,1005.25
2018-01-22T12:53:52.049Z,1005.22
2018-01-22T12:54:52.185Z,1005.20
2018-01-22T12:55:52.312Z,1005.14
2018-01-22T12:56:51.826Z,1005.09
2018-01-22T12:57:51.760Z,1005.11
2018-01-22T12:58:51.889Z,1005.13
2018-01-22T12:59:52.017Z,1005.12
2018-01-22T13:00:51.537Z,1005.16
2018-01-22T13:01:51.691Z,1005.10
2018-01-22T13:02:51.600Z,1005.12
2018-01-22T13:03:51.333Z,1005.12
2018-01-22T13:04:51.248Z,1005.09
2018-01-22T13:05:51.384Z,1005.03
2018-01-22T13:06:51.312Z,1005.05
2018-01-22T13:07:51.044Z,1005.09
2018-01-22T13:08:50.959Z,1005.11
2018-01-22T13:09:51.099Z,1005.06
2018-01-22T13:10:51.215Z,1005.05
2018-01-22T13:11:50.748Z,1005.06
2018-01-22T13:12:50.870Z,1005.06
2018-01-22T13:13:50.803Z,1005.10
2018-01-22T13:14:50.933Z,1005.09
2018-01-22T13:15:50.462Z,1005.10
2018-01-22T13:16:50.586Z,1005.12
2018-01-22T13:18:37.042Z,1005.09
2018-01-22T13:19:37.169Z,1005.10
2018-01-22T13:20:37.094Z,1005.08
2018-01-22T13:21:36.825Z,1005.04
2018-01-22T13:22:36.752Z,1005.02
2018-01-22T13:23:36.668Z,1005.02
2018-01-22T13:24:36.809Z,1005.02
2018-01-22T13:25:36.544Z,1005.03
2018-01-22T13:26:36.458Z,1005.01
2018-01-22T13:27:36.397Z,1005.02
2018-01-22T13:28:36.512Z,1004.97
2018-01-22T13:29:36.246Z,1004.90
2018-01-22T13:30:36.379Z,1004.92
2018-01-22T13:31:36.102Z,1004.84
2018-01-22T13:32:36.247Z,1004.82
2018-01-22T13:33:35.956Z,1004.85
2018-01-22T13:34:36.095Z,1004.84
2018-01-22T13:35:35.819Z,1004.88
2018-01-22T13:36:35.546Z,1004.90
2018-01-22T13:37:35.688Z,1004.85
2018-01-22T13:38:35.819Z,1004.82
2018-01-22T13:39:35.548Z,1004.79
2018-01-22T13:40:35.476Z,1004.77
2018-01-22T13:41:35.390Z,1004.77
2018-01-22T13:42:35.525Z,1004.73
2018-01-22T13:43:35.458Z,1004.69
2018-01-22T13:44:35.186Z,1004.69
2018-01-22T13:45:35.114Z,1004.65
2018-01-22T13:46:35.048Z,1004.66
2018-01-22T13:47:35.187Z,1004.63
2018-01-22T13:48:34.908Z,1004.58
2018-01-22T13:49:34.837Z,1004.60
2018-01-22T13:50:34.770Z,1004.64
2018-01-22T13:51:34.898Z,1004.67
2018-01-22T13:52:34.633Z,1004.63
2018-01-22T13:53:34.559Z,1004.67
2018-01-22T13:54:34.481Z,1004.64
2018-01-22T13:55:34.622Z,1004.65
2018-01-22T13:56:34.348Z,1004.59
2018-01-22T13:57:34.474Z,1004.62
2018-01-22T13:58:34.217Z,1004.64
2018-01-22T13:59:34.339Z,1004.62
2018-01-22T14:00:34.059Z,1004.71
2018-01-22T14:01:34.201Z,1004.74
2018-01-22T14:02:33.936Z,1004.70
2018-01-22T14:03:34.068Z,1004.73
2018-01-22T14:04:33.782Z,1004.71
2018-01-22T14:05:33.916Z,1004.68
2018-01-22T14:06:33.662Z,1004.79
2018-01-22T14:07:33.779Z,1004.76
2018-01-22T14:08:33.506Z,1004.77
2018-01-22T14:09:33.648Z,1004.74
2018-01-22T14:10:33.361Z,1004.74
2018-01-22T14:11:33.495Z,1004.75
2018-01-22T14:12:33.229Z,1004.75
2018-01-22T14:13:33.151Z,1004.73
2018-01-22T14:14:33.090Z,1004.73
2018-01-22T14:15:33.218Z,1004.73
2018-01-22T14:16:32.946Z,1004.72
2018-01-22T14:17:32.880Z,1004.77
2018-01-22T14:18:32.807Z,1004.73
2018-01-22T14:19:32.945Z,1004.78
2018-01-22T14:20:32.668Z,1004.72
2018-01-22T14:21:32.597Z,1004.72
2018-01-22T14:22:32.530Z,1004.74
2018-01-22T14:23:32.459Z,1004.70
2018-01-22T14:24:32.586Z,1004.75
2018-01-22T14:25:32.319Z,1004.70
2018-01-22T14:26:32.454Z,1004.72
2018-01-22T14:27:32.175Z,1004.73
2018-01-22T14:28:32.315Z,1004.72
2018-01-22T14:29:32.043Z,1004.76
2018-01-22T14:30:32.165Z,1004.74
2018-01-22T14:31:31.904Z,1004.71
2018-01-22T14:32:32.033Z,1004.78
2018-01-22T14:33:31.754Z,1004.81
2018-01-22T14:34:31.887Z,1004.81
2018-01-22T14:35:31.633Z,1004.85
2018-01-22T14:36:31.754Z,1004.84
2018-01-22T14:37:31.477Z,1004.84
2018-01-22T14:38:31.611Z,1004.89
2018-01-22T14:39:31.331Z,1004.90
2018-01-22T14:40:31.066Z,1004.83
2018-01-22T14:41:31.205Z,1004.85
2018-01-22T14:42:31.334Z,1004.77
2018-01-22T14:43:31.056Z,1004.75
2018-01-22T14:44:30.795Z,1004.73
2018-01-22T14:45:30.929Z,1004.73
2018-01-22T14:46:31.052Z,1004.75
2018-01-22T14:47:30.785Z,1004.72
2018-01-22T14:48:30.499Z,1004.77
2018-01-22T14:49:30.632Z,1004.77
2018-01-22T14:50:30.768Z,1004.79
2018-01-22T14:51:30.714Z,1004.82
2018-01-22T14:52:30.229Z,1004.82
2018-01-22T14:53:30.364Z,1004.84
2018-01-22T14:54:30.491Z,1004.84
2018-01-22T14:55:30.219Z,1004.85
2018-01-22T14:56:30.146Z,1004.92
2018-01-22T14:57:30.083Z,1004.93
2018-01-22T14:58:30.213Z,1004.93
2018-01-22T14:59:30.134Z,1004.94
2018-01-22T15:00:29.888Z,1004.93
2018-01-22T15:01:29.790Z,1004.94
2018-01-22T15:02:29.924Z,1004.88
2018-01-22T15:03:29.863Z,1004.93
2018-01-22T15:04:29.587Z,1004.90
2018-01-22T15:05:29.520Z,1004.88
2018-01-22T15:06:29.453Z,1004.88
2018-01-22T15:07:29.584Z,1004.88
2018-01-22T15:08:29.302Z,1004.90
2018-01-22T15:09:29.237Z,1004.86
2018-01-22T15:10:29.370Z,1004.88
2018-01-22T15:11:28.897Z,1004.84
2018-01-22T15:12:29.024Z,1004.85
2018-01-22T15:13:29.167Z,1004.84
2018-01-22T15:14:29.105Z,1004.82
2018-01-22T15:15:28.620Z,1004.85
2018-01-22T15:16:28.748Z,1004.85
2018-01-22T15:17:28.670Z,1004.82
2018-01-22T15:18:28.810Z,1004.81
2018-01-22T15:19:28.325Z,1004.78
2018-01-22T15:20:28.478Z,1004.80
2018-01-22T15:21:28.592Z,1004.82
2018-01-22T15:22:28.527Z,1004.83
2018-01-22T15:23:28.048Z,1004.82
2018-01-22T15:24:28.184Z,1004.81
2018-01-22T15:25:28.117Z,1004.83
2018-01-22T15:26:27.838Z,1004.90
2018-01-22T15:27:27.772Z,1004.86
2018-01-22T15:28:27.906Z,1004.85
2018-01-22T15:29:27.833Z,1004.88
2018-01-22T15:30:27.560Z,1004.89
2018-01-22T15:31:27.489Z,1004.93
2018-01-22T15:32:27.622Z,1004.89
2018-01-22T15:33:27.757Z,1004.90
2018-01-22T15:34:27.283Z,1004.93
2018-01-22T15:35:27.205Z,1004.94
2018-01-22T15:36:27.340Z,1004.90
2018-01-22T15:37:27.484Z,1004.92
2018-01-22T15:38:26.995Z,1004.90
2018-01-22T15:39:26.927Z,1004.99
2018-01-22T15:40:27.068Z,1004.99
2018-01-22T15:41:27.202Z,1004.90
2018-01-22T15:42:26.717Z,1004.90
2018-01-22T15:43:26.854Z,1004.89
2018-01-22T15:44:26.780Z,1004.89
2018-01-22T15:45:26.907Z,1004.89
2018-01-22T15:46:26.440Z,1004.91
2018-01-22T15:47:26.561Z,1004.94
2018-01-22T15:48:26.524Z,1004.99
2018-01-22T15:49:26.629Z,1004.96
2018-01-22T15:50:26.152Z,1004.94
2018-01-22T15:51:26.290Z,1004.94
2018-01-22T15:52:26.228Z,1004.98
2018-01-22T15:53:26.352Z,1004.98
2018-01-22T15:54:25.875Z,1005.05
2018-01-22T15:55:26.008Z,1005.04
2018-01-22T15:56:25.941Z,1005.11
2018-01-22T15:57:26.071Z,1005.16
2018-01-22T15:58:25.604Z,1005.14
2018-01-22T15:59:25.738Z,1005.12
2018-01-22T16:00:25.864Z,1005.14
2018-01-22T16:01:25.793Z,1005.18
2018-01-22T16:02:25.353Z,1005.18
2018-01-22T16:03:25.442Z,1005.19
2018-01-22T16:04:25.576Z,1005.21
2018-01-22T16:05:25.509Z,1005.25
2018-01-22T16:06:25.030Z,1005.28
2018-01-22T16:07:25.166Z,1005.30
2018-01-22T16:08:25.298Z,1005.35
2018-01-22T16:09:25.240Z,1005.36
2018-01-22T16:10:24.960Z,1005.35
2018-01-22T16:11:24.895Z,1005.32
2018-01-22T16:12:25.021Z,1005.39
2018-01-22T16:13:24.955Z,1005.37
2018-01-22T16:14:24.682Z,1005.36
2018-01-22T16:15:24.612Z,1005.38
2018-01-22T16:16:24.744Z,1005.39
2018-01-22T16:17:24.665Z,1005.38
2018-01-22T16:18:24.407Z,1005.34
2018-01-22T16:19:24.322Z,1005.35
2018-01-22T16:20:24.468Z,1005.35
2018-01-22T16:21:24.397Z,1005.33
2018-01-22T16:22:24.123Z,1005.32
2018-01-22T16:23:24.044Z,1005.31
2018-01-22T16:24:24.179Z,1005.28
2018-01-22T16:25:24.112Z,1005.23
2018-01-22T16:26:23.846Z,1005.21
2018-01-22T16:27:23.769Z,1005.23
2018-01-22T16:28:23.902Z,1005.20
2018-01-22T16:29:23.825Z,1005.24
2018-01-22T16:30:23.557Z,1005.26
2018-01-22T16:31:23.510Z,1005.27
2018-01-22T16:32:23.632Z,1005.29
2018-01-22T16:33:23.553Z,1005.39
2018-01-22T16:34:23.080Z,1005.46
2018-01-22T16:35:23.203Z,1005.51
2018-01-22T16:36:23.336Z,1005.53
2018-01-22T16:37:23.268Z,1005.54
2018-01-22T16:38:23.403Z,1005.56
2018-01-22T16:39:23.567Z,1005.59
2018-01-22T16:40:23.478Z,1005.53
2018-01-22T16:41:22.380Z,1005.56
2018-01-22T16:42:22.320Z,1005.56
2018-01-22T16:43:22.248Z,1005.54
2018-01-22T16:44:22.170Z,1005.62
2018-01-22T16:45:24.727Z,1005.55
2018-01-22T16:46:22.044Z,1005.56
2018-01-22T16:47:22.373Z,1005.58
2018-01-22T16:48:21.893Z,1005.60
2018-01-22T16:49:22.433Z,1005.63
2018-01-22T16:50:21.756Z,1005.63
2018-01-22T16:51:22.090Z,1005.66
2018-01-22T16:52:22.217Z,1005.66
2018-01-22T16:53:21.550Z,1005.64
2018-01-22T16:54:21.672Z,1005.68
2018-01-22T16:55:21.804Z,1005.65
2018-01-22T16:56:21.940Z,1005.67
2018-01-22T16:57:21.772Z,1005.69
2018-01-22T16:58:21.399Z,1005.68
2018-01-22T16:59:21.528Z,1005.64
2018-01-22T17:00:21.662Z,1005.71
2018-01-22T17:01:21.598Z,1005.66
2018-01-22T17:02:21.116Z,1005.71
2018-01-22T17:03:21.256Z,1005.64
2018-01-22T17:04:21.384Z,1005.64
2018-01-22T17:05:21.305Z,1005.60
2018-01-22T17:06:21.040Z,1005.65
2018-01-22T17:07:20.974Z,1005.61
2018-01-22T17:08:21.095Z,1005.64
2018-01-22T17:09:21.028Z,1005.63
2018-01-22T17:10:20.769Z,1005.70
2018-01-22T17:11:20.684Z,1005.76
2018-01-22T17:12:20.818Z,1005.76
2018-01-22T17:13:20.753Z,1005.85
2018-01-22T17:14:20.480Z,1005.83
2018-01-22T17:15:20.407Z,1005.83
2018-01-22T17:16:20.543Z,1005.88
2018-01-22T17:17:20.481Z,1005.84
2018-01-22T17:18:19.997Z,1005.86
2018-01-22T17:19:20.130Z,1005.84
2018-01-22T17:20:20.266Z,1005.81
2018-01-22T17:21:20.198Z,1005.83
2018-01-22T17:22:19.919Z,1005.87
2018-01-22T17:23:19.860Z,1005.90
2018-01-22T17:24:19.976Z,1005.84
2018-01-22T17:25:19.909Z,1005.87
2018-01-22T17:26:19.642Z,1005.85
2018-01-22T17:27:19.565Z,1005.89
2018-01-22T17:28:19.705Z,1005.89
2018-01-22T17:29:19.638Z,1005.89
2018-01-22T17:30:19.367Z,1005.91
2018-01-22T17:31:19.287Z,1005.89
2018-01-22T17:32:19.220Z,1005.85
2018-01-22T17:33:18.950Z,1005.83
2018-01-22T17:34:19.087Z,1005.81
2018-01-22T17:35:19.011Z,1005.82
2018-01-22T17:36:19.143Z,1005.81
2018-01-22T17:37:18.666Z,1005.81
2018-01-22T17:38:18.799Z,1005.76
2018-01-22T17:39:18.723Z,1005.80
2018-01-22T17:40:18.854Z,1005.78
2018-01-22T17:41:18.388Z,1005.81
2018-01-22T17:42:18.529Z,1005.84
2018-01-22T17:43:18.456Z,1005.81
2018-01-22T17:44:18.577Z,1005.83
2018-01-22T17:45:18.099Z,1005.89
2018-01-22T17:46:18.240Z,1005.89
2018-01-22T17:47:18.185Z,1005.95
2018-01-22T17:48:18.301Z,1005.93
2018-01-22T17:49:17.823Z,1005.99
2018-01-22T17:50:17.968Z,1006.00
2018-01-22T17:51:17.902Z,1005.99
2018-01-22T17:52:18.028Z,1006.00
2018-01-22T17:53:17.545Z,1006.07
2018-01-22T17:54:17.679Z,1006.04
2018-01-22T17:55:17.601Z,1006.08
2018-01-22T17:56:17.742Z,1006.09
2018-01-22T17:57:17.256Z,1006.12
2018-01-22T17:58:17.396Z,1006.16
2018-01-22T17:59:17.324Z,1006.17
2018-01-22T18:00:17.045Z,1006.17
2018-01-22T18:01:16.979Z,1006.17
2018-01-22T18:02:17.112Z,1006.19
2018-01-22T18:03:59.176Z,1006.18
2018-01-22T18:04:59.302Z,1006.28
2018-01-22T18:05:59.225Z,1006.31
2018-01-22T18:06:58.758Z,1006.34
2018-01-22T18:07:58.886Z,1006.36
2018-01-22T18:08:59.013Z,1006.40
2018-01-22T18:09:58.544Z,1006.44
2018-01-22T18:10:58.676Z,1006.44
2018-01-22T18:11:58.603Z,1006.44
2018-01-22T18:12:58.743Z,1006.46
2018-01-22T18:13:58.258Z,1006.55
2018-01-22T18:14:58.399Z,1006.54
2018-01-22T18:15:58.327Z,1006.55
2018-01-22T18:16:58.448Z,1006.54
2018-01-22T18:17:57.988Z,1006.58
2018-01-22T18:18:58.115Z,1006.60
2018-01-22T18:19:58.038Z,1006.61
2018-01-22T18:20:57.977Z,1006.60
2018-01-22T18:21:57.692Z,1006.60
2018-01-22T18:22:57.833Z,1006.56
2018-01-22T18:24:39.689Z,1006.60
2018-01-22T18:25:40.015Z,1006.59
2018-01-22T18:26:39.950Z,1006.57
2018-01-22T18:27:39.471Z,1006.57
2018-01-22T18:28:39.612Z,1006.56
2018-01-22T18:29:39.526Z,1006.60
2018-01-22T18:30:39.467Z,1006.59
2018-01-22T18:31:39.190Z,1006.63
2018-01-22T18:32:39.320Z,1006.66
2018-01-22T18:33:39.255Z,1006.64
2018-01-22T18:34:39.184Z,1006.68
2018-01-22T18:35:38.905Z,1006.66
2018-01-22T18:36:39.038Z,1006.67
2018-01-22T18:37:38.961Z,1006.66
2018-01-22T18:38:38.901Z,1006.64
2018-01-22T18:39:39.027Z,1006.61
2018-01-22T18:40:38.751Z,1006.65
2018-01-22T18:41:38.902Z,1006.62
2018-01-22T18:42:38.618Z,1006.59
2018-01-22T18:43:38.758Z,1006.61
2018-01-22T18:44:38.473Z,1006.57
2018-01-22T18:45:38.606Z,1006.61
2018-01-22T18:46:38.335Z,1006.62
2018-01-22T18:47:38.462Z,1006.64
2018-01-22T18:48:38.196Z,1006.62
2018-01-22T18:49:38.318Z,1006.61
2018-01-22T18:50:38.057Z,1006.61
2018-01-22T18:51:37.987Z,1006.64
2018-01-22T18:52:37.906Z,1006.59
2018-01-22T18:53:38.047Z,1006.61
2018-01-22T18:54:37.781Z,1006.59
2018-01-22T18:55:37.696Z,1006.62
2018-01-22T18:56:37.629Z,1006.60
2018-01-22T18:57:37.770Z,1006.60
2018-01-22T18:58:37.692Z,1006.60
2018-01-22T18:59:37.419Z,1006.58
2018-01-22T19:00:37.351Z,1006.57
2018-01-22T19:01:37.280Z,1006.53
2018-01-22T19:02:37.208Z,1006.54
2018-01-22T19:03:37.341Z,1006.54
2018-01-22T19:04:37.282Z,1006.56
2018-01-22T19:05:36.998Z,1006.57
2018-01-22T19:06:36.930Z,1006.57
2018-01-22T19:07:37.096Z,1006.61
2018-01-22T19:08:37.017Z,1006.63
2018-01-22T19:09:36.729Z,1006.65
2018-01-22T19:10:36.654Z,1006.69
2018-01-22T19:11:36.787Z,1006.68
2018-01-22T19:12:36.718Z,1006.67
2018-01-22T19:13:36.451Z,1006.65
2018-01-22T19:14:36.378Z,1006.62
2018-01-22T19:15:36.307Z,1006.60
2018-01-22T19:16:36.433Z,1006.61
2018-01-22T19:17:36.167Z,1006.64
2018-01-22T19:18:36.301Z,1006.62
2018-01-22T19:19:36.023Z,1006.61
2018-01-22T19:20:36.163Z,1006.63
2018-01-22T19:21:35.889Z,1006.67
2018-01-22T19:22:35.829Z,1006.64
2018-01-22T19:23:35.752Z,1006.70
2018-01-22T19:24:35.878Z,1006.70
2018-01-22T19:25:35.611Z,1006.68
2018-01-22T19:26:35.753Z,1006.70
2018-01-22T19:27:35.467Z,1006.65
2018-01-22T19:28:35.601Z,1006.60
2018-01-22T19:29:35.342Z,1006.63
2018-01-22T19:30:35.471Z,1006.62
2018-01-22T19:31:35.191Z,1006.63
2018-01-22T19:32:35.325Z,1006.64
2018-01-22T19:33:35.059Z,1006.69
2018-01-22T19:34:35.202Z,1006.70
2018-01-22T19:35:35.126Z,1006.73
2018-01-22T19:36:34.648Z,1006.74
2018-01-22T19:37:34.788Z,1006.74
2018-01-22T19:38:34.915Z,1006.79
2018-01-22T19:39:34.838Z,1006.76
2018-01-22T19:40:34.573Z,1006.75
2018-01-22T19:41:34.512Z,1006.78
2018-01-22T19:42:34.639Z,1006.80
2018-01-22T19:43:34.561Z,1006.79
2018-01-22T19:44:34.295Z,1006.81
2018-01-22T19:45:34.228Z,1006.82
2018-01-22T19:46:34.151Z,1006.85
2018-01-22T19:47:34.289Z,1006.88
2018-01-22T19:48:34.018Z,1006.88
2018-01-22T19:49:33.940Z,1006.88
2018-01-22T19:50:33.878Z,1006.90
2018-01-22T19:51:34.013Z,1006.92
2018-01-22T19:52:33.747Z,1006.96
2018-01-22T19:53:33.869Z,1006.96
2018-01-22T19:54:33.595Z,1006.95
2018-01-22T19:55:33.529Z,1006.97
2018-01-22T19:56:33.453Z,1006.98
2018-01-22T19:57:33.600Z,1006.94
2018-01-22T19:58:33.337Z,1006.94
2018-01-22T19:59:33.459Z,1006.93
2018-01-22T20:00:33.175Z,1006.94
2018-01-22T20:01:33.117Z,1006.92
2018-01-22T20:02:33.042Z,1006.90
2018-01-22T20:03:32.964Z,1006.94
2018-01-22T20:04:33.096Z,1006.96
2018-01-22T20:05:32.830Z,1006.99
2018-01-22T20:06:32.772Z,1006.98
2018-01-22T20:07:32.688Z,1006.98
2018-01-22T20:08:32.620Z,1007.03
2018-01-22T20:09:32.555Z,1006.99
2018-01-22T20:10:32.482Z,1006.96
2018-01-22T20:11:32.416Z,1006.94
2018-01-22T20:12:32.361Z,1006.97
2018-01-22T20:13:32.476Z,1007.00
2018-01-22T20:14:32.199Z,1007.00
2018-01-22T20:15:32.334Z,1007.03
2018-01-22T20:16:32.066Z,1007.08
2018-01-22T20:17:32.219Z,1007.14
2018-01-22T20:18:31.921Z,1007.18
2018-01-22T20:19:32.063Z,1007.23
2018-01-22T20:20:31.791Z,1007.26
2018-01-22T20:21:31.930Z,1007.26
2018-01-22T20:22:31.645Z,1007.30
2018-01-22T20:23:31.778Z,1007.28
2018-01-22T20:24:31.519Z,1007.31
2018-01-22T20:25:31.645Z,1007.30
2018-01-22T20:26:31.374Z,1007.35
2018-01-22T20:27:31.501Z,1007.37
2018-01-22T20:28:31.236Z,1007.41
2018-01-22T20:29:31.370Z,1007.41
2018-01-22T20:30:31.104Z,1007.42
2018-01-22T20:31:31.227Z,1007.45
2018-01-22T20:32:30.960Z,1007.46
2018-01-22T20:33:31.093Z,1007.50
2018-01-22T20:34:30.828Z,1007.52
2018-01-22T20:35:30.966Z,1007.53
2018-01-22T20:36:30.682Z,1007.60
2018-01-22T20:37:30.824Z,1007.56
2018-01-22T20:38:30.556Z,1007.59
2018-01-22T20:39:30.690Z,1007.64
2018-01-22T20:40:30.417Z,1007.65
2018-01-22T20:41:30.551Z,1007.67
2018-01-22T20:42:30.273Z,1007.68
2018-01-22T20:43:30.414Z,1007.67
2018-01-22T20:44:30.141Z,1007.64
2018-01-22T20:45:30.279Z,1007.67
2018-01-22T20:46:30.014Z,1007.72
2018-01-22T20:47:29.949Z,1007.69
2018-01-22T20:48:29.876Z,1007.72
2018-01-22T20:49:30.010Z,1007.75
2018-01-22T20:50:29.742Z,1007.81
2018-01-22T20:51:29.667Z,1007.83
2018-01-22T20:52:29.599Z,1007.88
2018-01-22T20:53:29.734Z,1007.92
2018-01-22T20:54:29.666Z,1007.97
2018-01-22T20:55:29.401Z,1008.00
2018-01-22T20:56:29.335Z,1008.04
2018-01-22T20:57:29.525Z,1008.03
2018-01-22T20:58:29.410Z,1008.04
2018-01-22T20:59:29.124Z,1008.03
2018-01-22T21:00:29.059Z,1008.04
2018-01-22T21:01:28.992Z,1008.05
2018-01-22T21:02:29.125Z,1008.10
2018-01-22T21:03:28.892Z,1008.08
2018-01-22T21:04:28.800Z,1008.13
2018-01-22T21:05:28.934Z,1008.15
2018-01-22T21:06:28.862Z,1008.16
2018-01-22T21:07:28.602Z,1008.11
2018-01-22T21:08:28.519Z,1008.10
2018-01-22T21:09:28.451Z,1008.12
2018-01-22T21:10:28.184Z,1008.13
2018-01-22T21:11:28.318Z,1008.18
2018-01-22T21:12:28.252Z,1008.16
2018-01-22T21:13:28.186Z,1008.20
2018-01-22T21:14:27.919Z,1008.19
2018-01-22T21:15:28.061Z,1008.23
2018-01-22T21:16:27.994Z,1008.23
2018-01-22T21:17:27.917Z,1008.21
2018-01-22T21:18:27.643Z,1008.19
2018-01-22T21:19:27.776Z,1008.20
2018-01-22T21:20:27.718Z,1008.16
2018-01-22T21:21:27.845Z,1008.15
2018-01-22T21:22:27.378Z,1008.12
2018-01-22T21:23:27.515Z,1008.17
2018-01-22T21:24:27.454Z,1008.16
2018-01-22T21:25:27.380Z,1008.18
2018-01-22T21:26:27.102Z,1008.18
2018-01-22T21:27:27.244Z,1008.21
2018-01-22T21:28:27.169Z,1008.21
2018-01-22T21:29:27.103Z,1008.22
2018-01-22T21:30:26.838Z,1008.25
2018-01-22T21:31:26.971Z,1008.28
2018-01-22T21:32:27.105Z,1008.25
2018-01-22T21:33:27.040Z,1008.23
2018-01-22T21:34:26.561Z,1008.20
2018-01-22T21:35:26.695Z,1008.17
2018-01-22T21:36:26.829Z,1008.16
2018-01-22T21:37:26.769Z,1008.17
2018-01-22T21:38:26.292Z,1008.19
2018-01-22T21:39:26.437Z,1008.17
2018-01-22T21:40:26.352Z,1008.19
2018-01-22T21:41:26.492Z,1008.20
2018-01-22T21:42:26.625Z,1008.20
2018-01-22T21:43:26.553Z,1008.23
2018-01-22T21:44:26.688Z,1008.24
2018-01-22T21:45:26.622Z,1008.22
2018-01-22T21:46:28.242Z,1008.24
2018-01-22T21:47:25.482Z,1008.25
2018-01-22T21:48:25.411Z,1008.25
2018-01-22T21:49:25.385Z,1008.32
2018-01-22T21:50:25.267Z,1008.36
2018-01-22T21:51:25.207Z,1008.36
2018-01-22T21:52:25.133Z,1008.43
2018-01-22T21:53:27.681Z,1008.47
2018-01-22T21:54:25.010Z,1008.47
2018-01-22T21:55:25.342Z,1008.47
2018-01-22T21:56:24.867Z,1008.56
2018-01-22T21:57:25.391Z,1008.56
2018-01-22T21:58:24.725Z,1008.59
2018-01-22T21:59:25.058Z,1008.58
2018-01-22T22:00:25.192Z,1008.59
2018-01-22T22:01:25.126Z,1008.60
2018-01-22T22:02:24.848Z,1008.63
2018-01-22T22:03:24.787Z,1008.64
2018-01-22T22:04:24.917Z,1008.66
2018-01-22T22:05:24.453Z,1008.68
2018-01-22T22:06:24.382Z,1008.74
2018-01-22T22:07:24.516Z,1008.72
2018-01-22T22:08:24.657Z,1008.76
2018-01-22T22:09:24.575Z,1008.75
2018-01-22T22:10:24.305Z,1008.72
2018-01-22T22:11:24.240Z,1008.70
2018-01-22T22:12:24.375Z,1008.68
2018-01-22T22:13:24.308Z,1008.68
2018-01-22T22:14:24.029Z,1008.67
2018-01-22T22:15:23.970Z,1008.63
2018-01-22T22:16:23.910Z,1008.65
2018-01-22T22:17:24.331Z,1008.62
2018-01-22T22:18:23.765Z,1008.67
2018-01-22T22:19:23.704Z,1008.67
2018-01-22T22:20:23.845Z,1008.66
2018-01-22T22:21:23.755Z,1008.67
2018-01-22T22:22:23.495Z,1008.66
2018-01-22T22:23:23.422Z,1008.68
2018-01-22T22:24:23.574Z,1008.72
2018-01-22T22:25:23.493Z,1008.74
2018-01-22T22:26:23.224Z,1008.73
2018-01-22T22:27:23.156Z,1008.76
2018-01-22T22:28:23.298Z,1008.76
2018-01-22T22:29:23.212Z,1008.75
2018-01-22T22:30:22.947Z,1008.83
2018-01-22T22:31:22.880Z,1008.84
2018-01-22T22:32:22.814Z,1008.85
2018-01-22T22:33:22.955Z,1008.87
2018-01-22T22:34:22.688Z,1008.90
2018-01-22T22:35:22.823Z,1008.92
2018-01-22T22:36:22.538Z,1008.99
2018-01-22T22:37:22.471Z,1008.99
2018-01-22T22:38:22.612Z,1009.01
2018-01-22T22:39:22.346Z,1009.04
2018-01-22T22:40:22.274Z,1009.09
2018-01-22T22:41:22.207Z,1009.13
2018-01-22T22:42:22.142Z,1009.18
2018-01-22T22:43:22.074Z,1009.18
2018-01-22T22:44:22.008Z,1009.17
2018-01-22T22:45:21.930Z,1009.17
2018-01-22T22:46:22.076Z,1009.20
2018-01-22T22:47:21.804Z,1009.20
2018-01-22T22:48:21.939Z,1009.17
2018-01-22T22:49:21.665Z,1009.20
2018-01-22T22:50:21.601Z,1009.19
2018-01-22T22:51:21.545Z,1009.21
2018-01-22T22:52:21.673Z,1009.19
2018-01-22T22:53:21.401Z,1009.18
2018-01-22T22:54:21.135Z,1009.21
2018-01-22T22:55:21.268Z,1009.21
2018-01-22T22:56:21.409Z,1009.20
2018-01-22T22:57:21.130Z,1009.20
2018-01-22T22:58:21.058Z,1009.17
2018-01-22T22:59:20.991Z,1009.24
2018-01-22T23:00:21.126Z,1009.18
2018-01-22T23:01:20.866Z,1009.20
2018-01-22T23:02:20.593Z,1009.20
2018-01-22T23:03:20.734Z,1009.24
2018-01-22T23:04:20.862Z,1009.24
2018-01-22T23:05:20.594Z,1009.25
2018-01-22T23:06:20.318Z,1009.23
2018-01-22T23:07:20.463Z,1009.27
2018-01-22T23:08:20.600Z,1009.29
2018-01-22T23:09:20.531Z,1009.32
2018-01-22T23:10:20.052Z,1009.32
2018-01-22T23:11:20.186Z,1009.30
2018-01-22T23:12:20.327Z,1009.30
2018-01-22T23:13:20.260Z,1009.28
2018-01-22T23:14:19.794Z,1009.28
2018-01-22T23:15:19.922Z,1009.32
2018-01-22T23:16:20.055Z,1009.31
2018-01-22T23:17:19.778Z,1009.37
2018-01-22T23:18:19.718Z,1009.41
2018-01-22T23:19:19.651Z,1009.42
2018-01-22T23:20:19.779Z,1009.45
2018-01-22T23:21:19.512Z,1009.46
2018-01-22T23:22:19.645Z,1009.45
2018-01-22T23:23:19.379Z,1009.47
2018-01-22T23:24:19.514Z,1009.48
2018-01-22T23:25:19.248Z,1009.49
2018-01-22T23:26:19.385Z,1009.47
2018-01-22T23:27:19.104Z,1009.50
2018-01-22T23:28:19.239Z,1009.54
2018-01-22T23:29:18.971Z,1009.55
2018-01-22T23:30:19.107Z,1009.61
2018-01-22T23:31:18.839Z,1009.55
2018-01-22T23:32:18.972Z,1009.57
2018-01-22T23:33:18.697Z,1009.61
2018-01-22T23:34:18.841Z,1009.61
2018-01-22T23:35:18.567Z,1009.65
2018-01-22T23:36:18.695Z,1009.66
2018-01-22T23:37:18.435Z,1009.70
2018-01-22T23:38:18.365Z,1009.73
2018-01-22T23:39:18.298Z,1009.69
2018-01-22T23:40:18.438Z,1009.68
2018-01-22T23:41:18.152Z,1009.70
2018-01-22T23:42:17.894Z,1009.70
2018-01-22T23:43:18.020Z,1009.75
2018-01-22T23:44:18.161Z,1009.72
2018-01-22T23:45:17.896Z,1009.73
2018-01-22T23:46:17.611Z,1009.73
2018-01-22T23:47:17.743Z,1009.72
2018-01-22T23:48:17.884Z,1009.76
2018-01-22T23:49:17.618Z,1009.82
2018-01-22T23:50:17.346Z,1009.83
2018-01-22T23:51:17.487Z,1009.85
2018-01-22T23:52:17.413Z,1009.89
2018-01-22T23:53:17.553Z,1009.88
2018-01-22T23:54:17.068Z,1009.87
2018-01-22T23:55:17.209Z,1009.86
2018-01-22T23:56:17.135Z,1009.83
2018-01-22T23:57:17.270Z,1009.81
2018-01-22T23:58:16.791Z,1009.83
2018-01-22T23:59:16.925Z,1009.80
